sensor_id;sensor_type;location;lat;lon;timestamp;P1;durP1;ratioP1;P2;durP2;ratioP2
12844;SDS011;68700;48.534;9.196;2023-12-20T00:03:06;4.37;;;3.13;;
12844;SDS011;68700;48.534;9.196;2023-12-20T00:06:29;2.33;;;1.80;;
12844;SDS011;68700;48.534;9.196;2023-12-20T00:09:51;3.37;;;1.87;;
12844;SDS011;68700;48.534;9.196;2023-12-20T00:13:13;3.13;;;1.67;;
12844;SDS011;68700;48.534;9.196;2023-12-20T00:16:35;2.40;;;2.07;;
12844;SDS011;68700;48.534;9.196;2023-12-20T00:19:56;2.10;;;1.90;;
12844;SDS011;68700;48.534;9.196;2023-12-20T00:23:20;2.40;;;2.10;;
12844;SDS011;68700;48.534;9.196;2023-12-20T00:26:43;2.37;;;1.60;;
12844;SDS011;68700;48.534;9.196;2023-12-20T00:30:07;2.67;;;1.80;;
12844;SDS011;68700;48.534;9.196;2023-12-20T00:33:30;1.80;;;1.57;;
12844;SDS011;68700;48.534;9.196;2023-12-20T00:36:51;2.03;;;1.47;;
12844;SDS011;68700;48.534;9.196;2023-12-20T00:40:16;1.30;;;1.20;;
12844;SDS011;68700;48.534;9.196;2023-12-20T00:43:38;1.27;;;0.90;;
12844;SDS011;68700;48.534;9.196;2023-12-20T00:46:59;1.77;;;1.40;;
12844;SDS011;68700;48.534;9.196;2023-12-20T00:50:21;3.27;;;1.70;;
12844;SDS011;68700;48.534;9.196;2023-12-20T00:53:43;4.23;;;1.30;;
12844;SDS011;68700;48.534;9.196;2023-12-20T00:57:07;1.57;;;1.13;;
12844;SDS011;68700;48.534;9.196;2023-12-20T01:00:29;1.47;;;1.10;;
12844;SDS011;68700;48.534;9.196;2023-12-20T01:03:51;0.90;;;0.73;;
12844;SDS011;68700;48.534;9.196;2023-12-20T01:07:13;1.77;;;0.90;;
12844;SDS011;68700;48.534;9.196;2023-12-20T01:10:34;1.00;;;0.83;;
12844;SDS011;68700;48.534;9.196;2023-12-20T01:13:57;1.00;;;0.70;;
12844;SDS011;68700;48.534;9.196;2023-12-20T01:17:19;2.20;;;0.90;;
12844;SDS011;68700;48.534;9.196;2023-12-20T01:20:41;0.80;;;0.80;;
12844;SDS011;68700;48.534;9.196;2023-12-20T01:24:03;1.40;;;0.97;;
12844;SDS011;68700;48.534;9.196;2023-12-20T01:27:25;1.23;;;0.90;;
12844;SDS011;68700;48.534;9.196;2023-12-20T01:30:48;1.87;;;1.30;;
12844;SDS011;68700;48.534;9.196;2023-12-20T01:34:10;1.63;;;1.23;;
12844;SDS011;68700;48.534;9.196;2023-12-20T01:37:32;1.73;;;1.30;;
12844;SDS011;68700;48.534;9.196;2023-12-20T01:40:53;2.47;;;1.60;;
12844;SDS011;68700;48.534;9.196;2023-12-20T01:44:15;2.60;;;1.40;;
12844;SDS011;68700;48.534;9.196;2023-12-20T01:47:38;1.87;;;1.33;;
12844;SDS011;68700;48.534;9.196;2023-12-20T01:51:00;1.73;;;1.47;;
12844;SDS011;68700;48.534;9.196;2023-12-20T01:54:23;2.43;;;1.40;;
12844;SDS011;68700;48.534;9.196;2023-12-20T01:57:46;3.73;;;1.43;;
12844;SDS011;68700;48.534;9.196;2023-12-20T02:01:08;1.70;;;1.40;;
12844;SDS011;68700;48.534;9.196;2023-12-20T02:04:32;2.63;;;1.20;;
12844;SDS011;68700;48.534;9.196;2023-12-20T02:07:54;1.43;;;1.20;;
12844;SDS011;68700;48.534;9.196;2023-12-20T02:11:16;1.30;;;1.20;;
12844;SDS011;68700;48.534;9.196;2023-12-20T02:14:38;2.00;;;1.20;;
12844;SDS011;68700;48.534;9.196;2023-12-20T02:17:59;1.90;;;1.07;;
12844;SDS011;68700;48.534;9.196;2023-12-20T02:21:25;1.40;;;1.30;;
12844;SDS011;68700;48.534;9.196;2023-12-20T02:24:53;2.43;;;1.10;;
12844;SDS011;68700;48.534;9.196;2023-12-20T02:28:15;1.73;;;1.10;;
12844;SDS011;68700;48.534;9.196;2023-12-20T02:31:37;1.70;;;0.90;;
12844;SDS011;68700;48.534;9.196;2023-12-20T02:34:59;1.20;;;0.80;;
12844;SDS011;68700;48.534;9.196;2023-12-20T02:38:22;1.43;;;0.77;;
12844;SDS011;68700;48.534;9.196;2023-12-20T02:41:44;0.97;;;0.87;;
12844;SDS011;68700;48.534;9.196;2023-12-20T02:45:06;0.93;;;0.90;;
12844;SDS011;68700;48.534;9.196;2023-12-20T02:48:29;1.07;;;0.87;;
12844;SDS011;68700;48.534;9.196;2023-12-20T02:51:50;1.63;;;1.00;;
12844;SDS011;68700;48.534;9.196;2023-12-20T02:55:14;1.00;;;0.97;;
12844;SDS011;68700;48.534;9.196;2023-12-20T02:58:36;1.10;;;1.00;;
12844;SDS011;68700;48.534;9.196;2023-12-20T03:01:57;1.17;;;1.07;;
12844;SDS011;68700;48.534;9.196;2023-12-20T03:05:19;1.60;;;1.00;;
12844;SDS011;68700;48.534;9.196;2023-12-20T03:08:41;1.10;;;0.90;;
12844;SDS011;68700;48.534;9.196;2023-12-20T03:12:04;2.50;;;1.00;;
12844;SDS011;68700;48.534;9.196;2023-12-20T03:15:26;0.90;;;0.90;;
12844;SDS011;68700;48.534;9.196;2023-12-20T03:18:48;0.83;;;0.83;;
12844;SDS011;68700;48.534;9.196;2023-12-20T03:22:10;0.70;;;0.70;;
12844;SDS011;68700;48.534;9.196;2023-12-20T03:25:31;1.20;;;1.00;;
12844;SDS011;68700;48.534;9.196;2023-12-20T03:28:55;0.80;;;0.80;;
12844;SDS011;68700;48.534;9.196;2023-12-20T03:32:16;2.67;;;0.97;;
12844;SDS011;68700;48.534;9.196;2023-12-20T03:35:38;1.93;;;0.90;;
12844;SDS011;68700;48.534;9.196;2023-12-20T03:39:00;1.67;;;1.10;;
12844;SDS011;68700;48.534;9.196;2023-12-20T03:42:22;1.53;;;0.90;;
12844;SDS011;68700;48.534;9.196;2023-12-20T03:45:45;1.30;;;1.20;;
12844;SDS011;68700;48.534;9.196;2023-12-20T03:49:07;1.17;;;0.93;;
12844;SDS011;68700;48.534;9.196;2023-12-20T03:52:28;1.27;;;1.10;;
12844;SDS011;68700;48.534;9.196;2023-12-20T03:55:50;1.67;;;0.90;;
12844;SDS011;68700;48.534;9.196;2023-12-20T03:59:12;1.27;;;0.90;;
12844;SDS011;68700;48.534;9.196;2023-12-20T04:02:35;1.53;;;0.90;;
12844;SDS011;68700;48.534;9.196;2023-12-20T04:05:57;1.63;;;1.10;;
12844;SDS011;68700;48.534;9.196;2023-12-20T04:09:19;1.17;;;1.00;;
12844;SDS011;68700;48.534;9.196;2023-12-20T04:12:43;1.00;;;0.90;;
12844;SDS011;68700;48.534;9.196;2023-12-20T04:16:05;1.87;;;0.77;;
12844;SDS011;68700;48.534;9.196;2023-12-20T04:19:28;1.40;;;0.87;;
12844;SDS011;68700;48.534;9.196;2023-12-20T04:22:50;1.50;;;0.87;;
12844;SDS011;68700;48.534;9.196;2023-12-20T04:26:12;2.13;;;0.97;;
12844;SDS011;68700;48.534;9.196;2023-12-20T04:29:34;1.00;;;0.77;;
12844;SDS011;68700;48.534;9.196;2023-12-20T04:32:56;1.00;;;0.90;;
12844;SDS011;68700;48.534;9.196;2023-12-20T04:36:19;0.60;;;0.60;;
12844;SDS011;68700;48.534;9.196;2023-12-20T04:39:41;2.30;;;0.80;;
12844;SDS011;68700;48.534;9.196;2023-12-20T04:43:03;1.60;;;0.80;;
12844;SDS011;68700;48.534;9.196;2023-12-20T04:46:25;0.90;;;0.80;;
12844;SDS011;68700;48.534;9.196;2023-12-20T04:49:46;1.17;;;0.60;;
12844;SDS011;68700;48.534;9.196;2023-12-20T04:53:10;0.90;;;0.60;;
12844;SDS011;68700;48.534;9.196;2023-12-20T04:56:31;1.43;;;0.67;;
12844;SDS011;68700;48.534;9.196;2023-12-20T04:59:53;0.77;;;0.60;;
12844;SDS011;68700;48.534;9.196;2023-12-20T05:03:15;1.37;;;1.00;;
12844;SDS011;68700;48.534;9.196;2023-12-20T05:06:37;2.20;;;0.97;;
12844;SDS011;68700;48.534;9.196;2023-12-20T05:10:00;0.80;;;0.50;;
12844;SDS011;68700;48.534;9.196;2023-12-20T05:13:22;0.50;;;0.50;;
12844;SDS011;68700;48.534;9.196;2023-12-20T05:16:43;0.80;;;0.60;;
12844;SDS011;68700;48.534;9.196;2023-12-20T05:20:06;0.40;;;0.40;;
12844;SDS011;68700;48.534;9.196;2023-12-20T05:23:28;0.30;;;0.27;;
12844;SDS011;68700;48.534;9.196;2023-12-20T05:26:52;1.23;;;0.40;;
12844;SDS011;68700;48.534;9.196;2023-12-20T05:30:14;0.30;;;0.30;;
12844;SDS011;68700;48.534;9.196;2023-12-20T05:33:35;1.87;;;0.40;;
12844;SDS011;68700;48.534;9.196;2023-12-20T05:36:57;0.87;;;0.57;;
12844;SDS011;68700;48.534;9.196;2023-12-20T05:40:19;1.17;;;0.70;;
12844;SDS011;68700;48.534;9.196;2023-12-20T05:43:42;0.80;;;0.70;;
12844;SDS011;68700;48.534;9.196;2023-12-20T05:47:04;1.53;;;0.60;;
12844;SDS011;68700;48.534;9.196;2023-12-20T05:50:26;2.33;;;0.60;;
12844;SDS011;68700;48.534;9.196;2023-12-20T05:53:48;1.70;;;0.50;;
12844;SDS011;68700;48.534;9.196;2023-12-20T05:57:10;0.40;;;0.40;;
12844;SDS011;68700;48.534;9.196;2023-12-20T06:00:34;0.50;;;0.50;;
12844;SDS011;68700;48.534;9.196;2023-12-20T06:03:55;0.90;;;0.50;;
12844;SDS011;68700;48.534;9.196;2023-12-20T06:07:17;1.50;;;0.50;;
12844;SDS011;68700;48.534;9.196;2023-12-20T06:10:39;0.80;;;0.67;;
12844;SDS011;68700;48.534;9.196;2023-12-20T06:14:01;0.80;;;0.60;;
12844;SDS011;68700;48.534;9.196;2023-12-20T06:17:24;0.83;;;0.77;;
12844;SDS011;68700;48.534;9.196;2023-12-20T06:20:46;0.60;;;0.60;;
12844;SDS011;68700;48.534;9.196;2023-12-20T06:24:08;0.77;;;0.70;;
12844;SDS011;68700;48.534;9.196;2023-12-20T06:27:30;1.73;;;0.70;;
12844;SDS011;68700;48.534;9.196;2023-12-20T06:30:52;1.23;;;0.90;;
12844;SDS011;68700;48.534;9.196;2023-12-20T06:34:16;1.10;;;0.80;;
12844;SDS011;68700;48.534;9.196;2023-12-20T06:37:38;1.00;;;0.70;;
12844;SDS011;68700;48.534;9.196;2023-12-20T06:41:02;0.60;;;0.50;;
12844;SDS011;68700;48.534;9.196;2023-12-20T06:44:24;1.40;;;0.70;;
12844;SDS011;68700;48.534;9.196;2023-12-20T06:47:46;1.10;;;0.73;;
12844;SDS011;68700;48.534;9.196;2023-12-20T06:51:10;1.03;;;0.70;;
12844;SDS011;68700;48.534;9.196;2023-12-20T06:54:33;1.30;;;0.77;;
12844;SDS011;68700;48.534;9.196;2023-12-20T06:57:55;2.20;;;0.80;;
12844;SDS011;68700;48.534;9.196;2023-12-20T07:01:17;1.10;;;0.83;;
12844;SDS011;68700;48.534;9.196;2023-12-20T07:04:39;0.87;;;0.70;;
12844;SDS011;68700;48.534;9.196;2023-12-20T07:08:02;0.70;;;0.70;;
12844;SDS011;68700;48.534;9.196;2023-12-20T07:11:25;1.07;;;0.80;;
12844;SDS011;68700;48.534;9.196;2023-12-20T07:14:47;1.60;;;1.03;;
12844;SDS011;68700;48.534;9.196;2023-12-20T07:18:09;0.90;;;0.90;;
12844;SDS011;68700;48.534;9.196;2023-12-20T07:21:31;1.10;;;0.80;;
12844;SDS011;68700;48.534;9.196;2023-12-20T07:24:54;1.87;;;0.80;;
12844;SDS011;68700;48.534;9.196;2023-12-20T07:28:16;1.00;;;0.83;;
12844;SDS011;68700;48.534;9.196;2023-12-20T07:31:37;1.53;;;0.80;;
12844;SDS011;68700;48.534;9.196;2023-12-20T07:34:59;1.27;;;1.10;;
12844;SDS011;68700;48.534;9.196;2023-12-20T07:38:21;1.20;;;1.10;;
12844;SDS011;68700;48.534;9.196;2023-12-20T07:41:44;1.00;;;0.80;;
12844;SDS011;68700;48.534;9.196;2023-12-20T07:45:06;0.90;;;0.80;;
12844;SDS011;68700;48.534;9.196;2023-12-20T07:48:29;0.93;;;0.90;;
12844;SDS011;68700;48.534;9.196;2023-12-20T07:51:51;2.00;;;1.00;;
12844;SDS011;68700;48.534;9.196;2023-12-20T07:55:12;5.27;;;3.23;;
12844;SDS011;68700;48.534;9.196;2023-12-20T07:58:36;17.70;;;8.50;;
12844;SDS011;68700;48.534;9.196;2023-12-20T08:01:57;4.57;;;2.40;;
12844;SDS011;68700;48.534;9.196;2023-12-20T08:05:19;1.57;;;0.93;;
12844;SDS011;68700;48.534;9.196;2023-12-20T08:08:41;2.13;;;1.17;;
12844;SDS011;68700;48.534;9.196;2023-12-20T08:12:03;1.00;;;0.80;;
12844;SDS011;68700;48.534;9.196;2023-12-20T08:15:27;1.27;;;1.10;;
12844;SDS011;68700;48.534;9.196;2023-12-20T08:18:48;2.03;;;1.23;;
12844;SDS011;68700;48.534;9.196;2023-12-20T08:22:11;2.87;;;2.10;;
12844;SDS011;68700;48.534;9.196;2023-12-20T08:25:33;2.27;;;1.17;;
12844;SDS011;68700;48.534;9.196;2023-12-20T08:28:55;2.33;;;1.70;;
12844;SDS011;68700;48.534;9.196;2023-12-20T08:32:18;1.73;;;1.63;;
12844;SDS011;68700;48.534;9.196;2023-12-20T08:35:40;1.43;;;1.33;;
12844;SDS011;68700;48.534;9.196;2023-12-20T08:39:02;1.20;;;1.10;;
12844;SDS011;68700;48.534;9.196;2023-12-20T08:42:27;1.60;;;1.00;;
12844;SDS011;68700;48.534;9.196;2023-12-20T08:45:51;1.00;;;0.80;;
12844;SDS011;68700;48.534;9.196;2023-12-20T08:49:14;1.77;;;1.10;;
12844;SDS011;68700;48.534;9.196;2023-12-20T08:52:36;1.20;;;1.10;;
12844;SDS011;68700;48.534;9.196;2023-12-20T08:55:58;2.50;;;2.07;;
12844;SDS011;68700;48.534;9.196;2023-12-20T08:59:21;2.73;;;2.30;;
12844;SDS011;68700;48.534;9.196;2023-12-20T09:02:43;2.50;;;1.70;;
12844;SDS011;68700;48.534;9.196;2023-12-20T09:06:06;1.40;;;1.30;;
12844;SDS011;68700;48.534;9.196;2023-12-20T09:09:28;1.40;;;1.30;;
12844;SDS011;68700;48.534;9.196;2023-12-20T09:12:52;1.40;;;1.30;;
12844;SDS011;68700;48.534;9.196;2023-12-20T09:16:17;3.00;;;1.80;;
12844;SDS011;68700;48.534;9.196;2023-12-20T09:19:39;3.00;;;2.07;;
12844;SDS011;68700;48.534;9.196;2023-12-20T09:23:02;1.93;;;1.50;;
12844;SDS011;68700;48.534;9.196;2023-12-20T09:26:24;2.30;;;1.10;;
12844;SDS011;68700;48.534;9.196;2023-12-20T09:29:46;2.00;;;1.30;;
12844;SDS011;68700;48.534;9.196;2023-12-20T09:33:08;1.83;;;1.10;;
12844;SDS011;68700;48.534;9.196;2023-12-20T09:36:30;1.33;;;1.20;;
12844;SDS011;68700;48.534;9.196;2023-12-20T09:39:57;1.90;;;1.30;;
12844;SDS011;68700;48.534;9.196;2023-12-20T09:43:19;3.17;;;1.30;;
12844;SDS011;68700;48.534;9.196;2023-12-20T09:46:42;2.50;;;1.30;;
12844;SDS011;68700;48.534;9.196;2023-12-20T09:50:10;2.07;;;1.27;;
12844;SDS011;68700;48.534;9.196;2023-12-20T09:53:33;2.67;;;1.30;;
12844;SDS011;68700;48.534;9.196;2023-12-20T09:57:00;1.67;;;1.33;;
12844;SDS011;68700;48.534;9.196;2023-12-20T10:00:22;2.63;;;1.70;;
12844;SDS011;68700;48.534;9.196;2023-12-20T10:03:44;2.53;;;1.30;;
12844;SDS011;68700;48.534;9.196;2023-12-20T10:07:06;2.57;;;1.07;;
12844;SDS011;68700;48.534;9.196;2023-12-20T10:10:28;3.07;;;1.27;;
12844;SDS011;68700;48.534;9.196;2023-12-20T10:13:51;3.10;;;1.00;;
12844;SDS011;68700;48.534;9.196;2023-12-20T10:17:19;3.90;;;1.23;;
12844;SDS011;68700;48.534;9.196;2023-12-20T10:20:43;1.87;;;1.03;;
12844;SDS011;68700;48.534;9.196;2023-12-20T10:24:06;3.23;;;1.10;;
12844;SDS011;68700;48.534;9.196;2023-12-20T10:27:28;3.40;;;1.10;;
12844;SDS011;68700;48.534;9.196;2023-12-20T10:30:51;3.47;;;1.10;;
12844;SDS011;68700;48.534;9.196;2023-12-20T10:34:13;1.90;;;1.10;;
12844;SDS011;68700;48.534;9.196;2023-12-20T10:37:36;3.47;;;1.50;;
12844;SDS011;68700;48.534;9.196;2023-12-20T10:40:58;2.77;;;1.30;;
12844;SDS011;68700;48.534;9.196;2023-12-20T10:44:22;1.33;;;1.13;;
12844;SDS011;68700;48.534;9.196;2023-12-20T10:47:45;3.10;;;1.20;;
12844;SDS011;68700;48.534;9.196;2023-12-20T10:51:08;2.53;;;1.13;;
12844;SDS011;68700;48.534;9.196;2023-12-20T10:54:30;1.77;;;1.20;;
12844;SDS011;68700;48.534;9.196;2023-12-20T10:57:52;4.20;;;1.20;;
12844;SDS011;68700;48.534;9.196;2023-12-20T11:01:21;2.23;;;1.30;;
12844;SDS011;68700;48.534;9.196;2023-12-20T11:04:47;1.63;;;1.27;;
12844;SDS011;68700;48.534;9.196;2023-12-20T11:08:20;2.27;;;1.30;;
12844;SDS011;68700;48.534;9.196;2023-12-20T11:12:02;3.20;;;1.40;;
12844;SDS011;68700;48.534;9.196;2023-12-20T11:15:29;2.93;;;1.37;;
12844;SDS011;68700;48.534;9.196;2023-12-20T11:18:51;3.17;;;1.23;;
12844;SDS011;68700;48.534;9.196;2023-12-20T11:22:15;1.87;;;1.13;;
12844;SDS011;68700;48.534;9.196;2023-12-20T11:25:47;3.87;;;1.27;;
12844;SDS011;68700;48.534;9.196;2023-12-20T11:32:50;3.27;;;1.70;;
12844;SDS011;68700;48.534;9.196;2023-12-20T11:36:12;2.73;;;1.10;;
12844;SDS011;68700;48.534;9.196;2023-12-20T11:39:37;3.93;;;1.10;;
12844;SDS011;68700;48.534;9.196;2023-12-20T11:42:59;2.20;;;1.20;;
12844;SDS011;68700;48.534;9.196;2023-12-20T11:46:21;2.37;;;1.10;;
12844;SDS011;68700;48.534;9.196;2023-12-20T11:49:43;3.30;;;1.30;;
12844;SDS011;68700;48.534;9.196;2023-12-20T11:53:05;2.83;;;1.07;;
12844;SDS011;68700;48.534;9.196;2023-12-20T11:56:28;3.40;;;1.77;;
12844;SDS011;68700;48.534;9.196;2023-12-20T11:59:50;3.40;;;1.10;;
12844;SDS011;68700;48.534;9.196;2023-12-20T12:03:14;2.27;;;1.10;;
12844;SDS011;68700;48.534;9.196;2023-12-20T12:06:36;2.30;;;1.33;;
12844;SDS011;68700;48.534;9.196;2023-12-20T12:09:58;2.07;;;1.00;;
12844;SDS011;68700;48.534;9.196;2023-12-20T12:13:21;2.60;;;1.53;;
12844;SDS011;68700;48.534;9.196;2023-12-20T12:16:47;3.00;;;1.30;;
12844;SDS011;68700;48.534;9.196;2023-12-20T12:20:10;3.83;;;1.27;;
12844;SDS011;68700;48.534;9.196;2023-12-20T12:23:32;3.90;;;1.20;;
12844;SDS011;68700;48.534;9.196;2023-12-20T12:26:56;2.23;;;1.10;;
12844;SDS011;68700;48.534;9.196;2023-12-20T12:30:20;3.17;;;1.40;;
12844;SDS011;68700;48.534;9.196;2023-12-20T12:33:42;3.83;;;0.97;;
12844;SDS011;68700;48.534;9.196;2023-12-20T12:37:04;2.90;;;1.50;;
12844;SDS011;68700;48.534;9.196;2023-12-20T12:40:26;5.33;;;1.63;;
12844;SDS011;68700;48.534;9.196;2023-12-20T12:43:48;4.27;;;1.57;;
12844;SDS011;68700;48.534;9.196;2023-12-20T12:47:11;4.20;;;1.43;;
12844;SDS011;68700;48.534;9.196;2023-12-20T12:50:33;5.23;;;1.60;;
12844;SDS011;68700;48.534;9.196;2023-12-20T12:53:55;4.27;;;1.73;;
12844;SDS011;68700;48.534;9.196;2023-12-20T12:57:17;3.73;;;1.40;;
12844;SDS011;68700;48.534;9.196;2023-12-20T13:00:39;4.47;;;1.77;;
12844;SDS011;68700;48.534;9.196;2023-12-20T13:04:03;3.40;;;1.60;;
12844;SDS011;68700;48.534;9.196;2023-12-20T13:07:30;3.37;;;1.27;;
12844;SDS011;68700;48.534;9.196;2023-12-20T13:10:52;5.20;;;1.40;;
12844;SDS011;68700;48.534;9.196;2023-12-20T13:14:15;4.77;;;1.20;;
12844;SDS011;68700;48.534;9.196;2023-12-20T13:17:37;4.63;;;1.23;;
12844;SDS011;68700;48.534;9.196;2023-12-20T13:21:01;4.23;;;1.70;;
12844;SDS011;68700;48.534;9.196;2023-12-20T13:24:23;8.90;;;3.53;;
12844;SDS011;68700;48.534;9.196;2023-12-20T13:27:45;6.40;;;1.47;;
12844;SDS011;68700;48.534;9.196;2023-12-20T13:31:06;3.87;;;1.50;;
12844;SDS011;68700;48.534;9.196;2023-12-20T13:34:28;5.73;;;1.87;;
12844;SDS011;68700;48.534;9.196;2023-12-20T13:37:51;12.13;;;5.27;;
12844;SDS011;68700;48.534;9.196;2023-12-20T13:41:13;4.30;;;1.90;;
12844;SDS011;68700;48.534;9.196;2023-12-20T13:44:35;4.23;;;1.17;;
12844;SDS011;68700;48.534;9.196;2023-12-20T13:47:57;8.40;;;3.53;;
12844;SDS011;68700;48.534;9.196;2023-12-20T13:51:20;7.03;;;4.07;;
12844;SDS011;68700;48.534;9.196;2023-12-20T13:54:43;7.20;;;2.80;;
12844;SDS011;68700;48.534;9.196;2023-12-20T13:58:05;3.30;;;2.07;;
12844;SDS011;68700;48.534;9.196;2023-12-20T14:01:26;4.97;;;1.40;;
12844;SDS011;68700;48.534;9.196;2023-12-20T14:04:48;4.47;;;1.47;;
12844;SDS011;68700;48.534;9.196;2023-12-20T14:08:10;6.63;;;1.47;;
12844;SDS011;68700;48.534;9.196;2023-12-20T14:11:33;5.53;;;1.70;;
12844;SDS011;68700;48.534;9.196;2023-12-20T14:15:01;6.70;;;2.67;;
12844;SDS011;68700;48.534;9.196;2023-12-20T14:18:23;4.53;;;1.63;;
12844;SDS011;68700;48.534;9.196;2023-12-20T14:21:45;8.40;;;4.13;;
12844;SDS011;68700;48.534;9.196;2023-12-20T14:25:07;6.47;;;2.13;;
12844;SDS011;68700;48.534;9.196;2023-12-20T14:28:31;4.10;;;1.57;;
12844;SDS011;68700;48.534;9.196;2023-12-20T14:31:53;4.50;;;1.33;;
12844;SDS011;68700;48.534;9.196;2023-12-20T14:35:15;4.87;;;1.40;;
12844;SDS011;68700;48.534;9.196;2023-12-20T14:38:37;8.03;;;2.33;;
12844;SDS011;68700;48.534;9.196;2023-12-20T14:41:59;6.37;;;2.50;;
12844;SDS011;68700;48.534;9.196;2023-12-20T14:45:22;5.50;;;1.40;;
12844;SDS011;68700;48.534;9.196;2023-12-20T14:48:44;2.97;;;1.23;;
12844;SDS011;68700;48.534;9.196;2023-12-20T14:52:06;3.97;;;1.30;;
12844;SDS011;68700;48.534;9.196;2023-12-20T14:55:31;4.53;;;1.77;;
12844;SDS011;68700;48.534;9.196;2023-12-20T14:58:54;3.23;;;1.23;;
12844;SDS011;68700;48.534;9.196;2023-12-20T15:02:17;3.03;;;1.60;;
12844;SDS011;68700;48.534;9.196;2023-12-20T15:05:39;3.67;;;1.57;;
12844;SDS011;68700;48.534;9.196;2023-12-20T15:09:00;3.57;;;1.30;;
12844;SDS011;68700;48.534;9.196;2023-12-20T15:12:24;3.43;;;1.33;;
12844;SDS011;68700;48.534;9.196;2023-12-20T15:15:46;4.13;;;1.50;;
12844;SDS011;68700;48.534;9.196;2023-12-20T15:19:09;5.40;;;1.50;;
12844;SDS011;68700;48.534;9.196;2023-12-20T15:22:31;3.17;;;1.60;;
12844;SDS011;68700;48.534;9.196;2023-12-20T15:25:55;3.27;;;1.33;;
12844;SDS011;68700;48.534;9.196;2023-12-20T15:29:16;2.70;;;1.53;;
12844;SDS011;68700;48.534;9.196;2023-12-20T15:32:38;3.87;;;1.20;;
12844;SDS011;68700;48.534;9.196;2023-12-20T15:36:02;4.47;;;1.57;;
12844;SDS011;68700;48.534;9.196;2023-12-20T15:39:24;4.37;;;1.73;;
12844;SDS011;68700;48.534;9.196;2023-12-20T15:42:46;7.80;;;2.60;;
12844;SDS011;68700;48.534;9.196;2023-12-20T15:46:09;3.23;;;1.43;;
12844;SDS011;68700;48.534;9.196;2023-12-20T15:49:31;3.63;;;1.53;;
12844;SDS011;68700;48.534;9.196;2023-12-20T15:52:54;5.33;;;1.83;;
12844;SDS011;68700;48.534;9.196;2023-12-20T15:56:16;2.90;;;1.30;;
12844;SDS011;68700;48.534;9.196;2023-12-20T15:59:38;3.53;;;1.50;;
12844;SDS011;68700;48.534;9.196;2023-12-20T16:02:59;3.80;;;1.67;;
12844;SDS011;68700;48.534;9.196;2023-12-20T16:06:23;3.57;;;1.57;;
12844;SDS011;68700;48.534;9.196;2023-12-20T16:09:46;3.27;;;1.57;;
12844;SDS011;68700;48.534;9.196;2023-12-20T16:13:07;3.00;;;1.60;;
12844;SDS011;68700;48.534;9.196;2023-12-20T16:16:29;4.47;;;1.33;;
12844;SDS011;68700;48.534;9.196;2023-12-20T16:19:51;3.50;;;1.40;;
12844;SDS011;68700;48.534;9.196;2023-12-20T16:23:13;4.97;;;1.50;;
12844;SDS011;68700;48.534;9.196;2023-12-20T16:26:36;3.67;;;1.90;;
12844;SDS011;68700;48.534;9.196;2023-12-20T16:29:58;2.60;;;1.17;;
12844;SDS011;68700;48.534;9.196;2023-12-20T16:33:20;2.03;;;1.20;;
12844;SDS011;68700;48.534;9.196;2023-12-20T16:36:49;4.07;;;1.43;;
12844;SDS011;68700;48.534;9.196;2023-12-20T16:40:12;4.87;;;1.40;;
12844;SDS011;68700;48.534;9.196;2023-12-20T16:43:35;3.13;;;1.87;;
12844;SDS011;68700;48.534;9.196;2023-12-20T16:46:57;4.13;;;1.77;;
12844;SDS011;68700;48.534;9.196;2023-12-20T16:50:19;2.97;;;1.60;;
12844;SDS011;68700;48.534;9.196;2023-12-20T16:53:40;3.73;;;1.50;;
12844;SDS011;68700;48.534;9.196;2023-12-20T16:57:02;4.77;;;1.60;;
12844;SDS011;68700;48.534;9.196;2023-12-20T17:00:26;3.77;;;2.07;;
12844;SDS011;68700;48.534;9.196;2023-12-20T17:03:47;4.23;;;1.80;;
12844;SDS011;68700;48.534;9.196;2023-12-20T17:07:10;4.53;;;1.80;;
12844;SDS011;68700;48.534;9.196;2023-12-20T17:10:32;4.37;;;2.27;;
12844;SDS011;68700;48.534;9.196;2023-12-20T17:13:54;6.33;;;1.70;;
12844;SDS011;68700;48.534;9.196;2023-12-20T17:17:19;4.37;;;1.53;;
12844;SDS011;68700;48.534;9.196;2023-12-20T17:20:41;3.20;;;1.73;;
12844;SDS011;68700;48.534;9.196;2023-12-20T17:24:03;4.93;;;1.43;;
12844;SDS011;68700;48.534;9.196;2023-12-20T17:27:25;4.87;;;1.80;;
12844;SDS011;68700;48.534;9.196;2023-12-20T17:30:46;5.70;;;1.67;;
12844;SDS011;68700;48.534;9.196;2023-12-20T17:34:10;5.97;;;1.67;;
12844;SDS011;68700;48.534;9.196;2023-12-20T17:37:32;5.73;;;1.80;;
12844;SDS011;68700;48.534;9.196;2023-12-20T17:40:54;6.10;;;2.53;;
12844;SDS011;68700;48.534;9.196;2023-12-20T17:44:16;4.40;;;1.70;;
12844;SDS011;68700;48.534;9.196;2023-12-20T17:47:39;3.70;;;1.77;;
12844;SDS011;68700;48.534;9.196;2023-12-20T17:51:02;2.73;;;1.60;;
12844;SDS011;68700;48.534;9.196;2023-12-20T17:54:24;4.57;;;2.20;;
12844;SDS011;68700;48.534;9.196;2023-12-20T17:57:46;3.37;;;1.77;;
12844;SDS011;68700;48.534;9.196;2023-12-20T18:01:08;3.03;;;1.70;;
12844;SDS011;68700;48.534;9.196;2023-12-20T18:04:31;6.47;;;2.07;;
12844;SDS011;68700;48.534;9.196;2023-12-20T18:07:54;2.30;;;1.60;;
12844;SDS011;68700;48.534;9.196;2023-12-20T18:11:16;4.47;;;1.60;;
12844;SDS011;68700;48.534;9.196;2023-12-20T18:14:37;4.37;;;1.67;;
12844;SDS011;68700;48.534;9.196;2023-12-20T18:17:59;3.37;;;1.30;;
12844;SDS011;68700;48.534;9.196;2023-12-20T18:21:21;3.40;;;1.60;;
12844;SDS011;68700;48.534;9.196;2023-12-20T18:24:44;3.93;;;1.67;;
12844;SDS011;68700;48.534;9.196;2023-12-20T18:28:06;3.50;;;1.87;;
12844;SDS011;68700;48.534;9.196;2023-12-20T18:31:28;4.80;;;1.90;;
12844;SDS011;68700;48.534;9.196;2023-12-20T18:34:50;3.97;;;1.43;;
12844;SDS011;68700;48.534;9.196;2023-12-20T18:38:11;3.13;;;1.57;;
12844;SDS011;68700;48.534;9.196;2023-12-20T18:41:35;5.33;;;1.80;;
12844;SDS011;68700;48.534;9.196;2023-12-20T18:44:57;9.07;;;1.80;;
12844;SDS011;68700;48.534;9.196;2023-12-20T18:48:20;3.03;;;1.93;;
12844;SDS011;68700;48.534;9.196;2023-12-20T18:51:42;3.83;;;1.60;;
12844;SDS011;68700;48.534;9.196;2023-12-20T18:55:04;3.53;;;1.67;;
12844;SDS011;68700;48.534;9.196;2023-12-20T18:58:28;5.20;;;2.03;;
12844;SDS011;68700;48.534;9.196;2023-12-20T19:01:51;4.43;;;1.90;;
12844;SDS011;68700;48.534;9.196;2023-12-20T19:05:13;3.60;;;1.80;;
12844;SDS011;68700;48.534;9.196;2023-12-20T19:08:35;4.90;;;1.90;;
12844;SDS011;68700;48.534;9.196;2023-12-20T19:11:59;4.00;;;1.97;;
12844;SDS011;68700;48.534;9.196;2023-12-20T19:15:22;4.37;;;2.17;;
12844;SDS011;68700;48.534;9.196;2023-12-20T19:18:44;5.67;;;1.60;;
12844;SDS011;68700;48.534;9.196;2023-12-20T19:22:06;3.43;;;2.00;;
12844;SDS011;68700;48.534;9.196;2023-12-20T19:25:28;2.93;;;2.00;;
12844;SDS011;68700;48.534;9.196;2023-12-20T19:28:50;4.70;;;1.90;;
12844;SDS011;68700;48.534;9.196;2023-12-20T19:32:13;3.17;;;2.00;;
12844;SDS011;68700;48.534;9.196;2023-12-20T19:35:35;5.53;;;2.20;;
12844;SDS011;68700;48.534;9.196;2023-12-20T19:38:57;4.53;;;2.10;;
12844;SDS011;68700;48.534;9.196;2023-12-20T19:42:19;3.87;;;1.80;;
12844;SDS011;68700;48.534;9.196;2023-12-20T19:45:41;2.93;;;1.63;;
12844;SDS011;68700;48.534;9.196;2023-12-20T19:49:04;2.80;;;1.43;;
12844;SDS011;68700;48.534;9.196;2023-12-20T19:52:27;4.33;;;1.70;;
12844;SDS011;68700;48.534;9.196;2023-12-20T19:55:49;3.33;;;1.67;;
12844;SDS011;68700;48.534;9.196;2023-12-20T19:59:11;2.57;;;1.70;;
12844;SDS011;68700;48.534;9.196;2023-12-20T20:02:32;3.40;;;1.50;;
12844;SDS011;68700;48.534;9.196;2023-12-20T20:05:57;4.37;;;1.50;;
12844;SDS011;68700;48.534;9.196;2023-12-20T20:09:19;3.57;;;1.83;;
12844;SDS011;68700;48.534;9.196;2023-12-20T20:12:41;4.27;;;1.80;;
12844;SDS011;68700;48.534;9.196;2023-12-20T20:16:02;5.53;;;1.77;;
12844;SDS011;68700;48.534;9.196;2023-12-20T20:19:25;3.60;;;1.50;;
12844;SDS011;68700;48.534;9.196;2023-12-20T20:22:49;3.13;;;1.60;;
12844;SDS011;68700;48.534;9.196;2023-12-20T20:26:11;3.03;;;1.50;;